PWSweather.com
Personal Weather Stations
Station Observations
ERMELO
Centre, ErmeloNL

CentreErmeloNL

Lat: 52.2986655, Lon: 5.6296194

Elevation: 41

Station Type: Oregon WMR200

www.meteoermelo.nl

High Low Average
Temperature 35.6°F2.0°C 19.8°F-6.8°C 26.8°F-2.9°C
Dew Point 19.7°F-6.8°C 7.2°F-13.8°C 11.9°F-11.2°C
Winds 4.2 mph 6.8 kmh Calm Calm 2.0 mph ENE3.2 kmh ENE
Wind Gusts 6.7 mph10.8 kmh -- 4.0 mph6.4 kmh
Humidity 73% 32% 55%
Pressure 30.21 in1023.0 mb 29.98 in1015.2 mb -
Precipitation 0.00 in0.0 mm - -
Hour Temp Dew Point Humidity Winds Wind Gusts Pressure Precip Precip Rate Daily Precip Total
12:00 AM 25.9°F-3.4°C 12.7°F-10.7°C 57% 2.0 mph ESE3.2 kmh ESE 4.3 mph6.9 kmh 29.98 in1015.2 mb 0.00 in0.0 mm 0.00 in0.0 mm 0.00 in0.0 mm
12:15 AM 25.5°F-3.6°C 12.4°F-10.9°C 57% 3.0 mph E4.8 kmh E 4.3 mph6.9 kmh 29.98 in1015.2 mb 0.00 in0.0 mm 0.00 in0.0 mm 0.00 in0.0 mm
12:30 AM 25.3°F-3.7°C 12.6°F-10.8°C 58% 2.7 mph E4.3 kmh E 4.3 mph6.9 kmh 29.98 in1015.2 mb 0.00 in0.0 mm 0.00 in0.0 mm 0.00 in0.0 mm
12:45 AM 25.0°F-3.9°C 12.3°F-10.9°C 58% 2.6 mph E4.2 kmh E 4.3 mph6.9 kmh 29.98 in1015.2 mb 0.00 in0.0 mm 0.00 in0.0 mm 0.00 in0.0 mm
01:00 AM 24.8°F-4.0°C 12.5°F-10.8°C 59% 2.8 mph ESE4.5 kmh ESE 4.0 mph6.4 kmh 29.98 in1015.2 mb 0.00 in0.0 mm 0.00 in0.0 mm 0.00 in0.0 mm
01:15 AM 24.6°F-4.1°C 12.3°F-10.9°C 59% 2.0 mph ESE3.2 kmh ESE 2.9 mph4.7 kmh 29.98 in1015.2 mb 0.00 in0.0 mm 0.00 in0.0 mm 0.00 in0.0 mm
01:30 AM 24.1°F-4.4°C 11.8°F-11.2°C 59% 2.6 mph E4.2 kmh E 4.0 mph6.4 kmh 29.98 in1015.2 mb 0.00 in0.0 mm 0.00 in0.0 mm 0.00 in0.0 mm
01:45 AM 23.9°F-4.5°C 12.0°F-11.1°C 60% 3.0 mph E4.8 kmh E 4.3 mph6.9 kmh 29.98 in1015.2 mb 0.00 in0.0 mm 0.00 in0.0 mm 0.00 in0.0 mm
02:00 AM 23.7°F-4.6°C 12.2°F-11.0°C 61% 3.0 mph E4.8 kmh E 5.4 mph8.7 kmh 29.98 in1015.2 mb 0.00 in0.0 mm 0.00 in0.0 mm 0.00 in0.0 mm
02:15 AM 23.4°F-4.8°C 11.9°F-11.2°C 61% 2.6 mph E4.2 kmh E 4.3 mph6.9 kmh 29.98 in1015.2 mb 0.00 in0.0 mm 0.00 in0.0 mm 0.00 in0.0 mm
02:30 AM 23.2°F-4.9°C 11.7°F-11.3°C 61% 2.8 mph E4.5 kmh E 4.3 mph6.9 kmh 29.98 in1015.2 mb 0.00 in0.0 mm 0.00 in0.0 mm 0.00 in0.0 mm
02:45 AM 22.8°F-5.1°C 11.4°F-11.4°C 61% 2.4 mph E3.9 kmh E 4.7 mph7.6 kmh 29.98 in1015.2 mb 0.00 in0.0 mm 0.00 in0.0 mm 0.00 in0.0 mm
03:00 AM 22.6°F-5.2°C 11.6°F-11.3°C 62% 2.9 mph E4.7 kmh E 4.3 mph6.9 kmh 29.98 in1015.2 mb 0.00 in0.0 mm 0.00 in0.0 mm 0.00 in0.0 mm
03:15 AM 22.6°F-5.2°C 11.9°F-11.2°C 63% 3.5 mph ESE5.6 kmh ESE 5.6 mph9.0 kmh 29.98 in1015.2 mb 0.00 in0.0 mm 0.00 in0.0 mm 0.00 in0.0 mm
03:30 AM 22.6°F-5.2°C 11.9°F-11.2°C 63% 3.0 mph ESE4.8 kmh ESE 5.8 mph9.3 kmh 29.98 in1015.2 mb 0.00 in0.0 mm 0.00 in0.0 mm 0.00 in0.0 mm
03:45 AM 22.8°F-5.1°C 12.5°F-10.8°C 64% 2.7 mph ESE4.3 kmh ESE 4.0 mph6.4 kmh 29.98 in1015.2 mb 0.00 in0.0 mm 0.00 in0.0 mm 0.00 in0.0 mm
04:00 AM 22.6°F-5.2°C 12.3°F-10.9°C 64% 3.5 mph E5.6 kmh E 5.6 mph9.0 kmh 29.98 in1015.2 mb 0.00 in0.0 mm 0.00 in0.0 mm 0.00 in0.0 mm
04:15 AM 22.5°F-5.3°C 12.1°F-11.1°C 64% 3.1 mph E5.0 kmh E 4.7 mph7.6 kmh 29.98 in1015.2 mb 0.00 in0.0 mm 0.00 in0.0 mm 0.00 in0.0 mm
04:30 AM 22.1°F-5.5°C 11.8°F-11.2°C 64% 2.8 mph ENE4.5 kmh ENE 3.6 mph5.8 kmh 29.98 in1015.2 mb 0.00 in0.0 mm 0.00 in0.0 mm 0.00 in0.0 mm
04:45 AM 21.7°F-5.7°C 11.4°F-11.4°C 64% 2.1 mph ENE3.4 kmh ENE 3.6 mph5.8 kmh 29.98 in1015.2 mb 0.00 in0.0 mm 0.00 in0.0 mm 0.00 in0.0 mm
05:00 AM 21.2°F-6.0°C 10.9°F-11.7°C 64% 1.7 mph ENE2.7 kmh ENE 2.9 mph4.7 kmh 29.98 in1015.2 mb 0.00 in0.0 mm 0.00 in0.0 mm 0.00 in0.0 mm
05:15 AM 20.8°F-6.2°C 10.9°F-11.7°C 65% 2.0 mph ENE3.2 kmh ENE 3.6 mph5.8 kmh 29.98 in1015.2 mb 0.00 in0.0 mm 0.00 in0.0 mm 0.00 in0.0 mm
05:30 AM 20.5°F-6.4°C 10.9°F-11.7°C 66% 1.8 mph ENE2.9 kmh ENE 2.9 mph4.7 kmh 29.98 in1015.2 mb 0.00 in0.0 mm 0.00 in0.0 mm 0.00 in0.0 mm
05:45 AM 20.5°F-6.4°C 11.3°F-11.5°C 67% 2.1 mph ENE3.4 kmh ENE 3.6 mph5.8 kmh 30.01 in1016.3 mb 0.00 in0.0 mm 0.00 in0.0 mm 0.00 in0.0 mm
06:00 AM 20.5°F-6.4°C 11.3°F-11.5°C 67% 2.4 mph ENE3.9 kmh ENE 3.8 mph6.1 kmh 30.01 in1016.3 mb 0.00 in0.0 mm 0.00 in0.0 mm 0.00 in0.0 mm
06:15 AM 20.3°F-6.5°C 11.1°F-11.6°C 67% 2.0 mph ESE3.2 kmh ESE 3.8 mph6.1 kmh 30.01 in1016.3 mb 0.00 in0.0 mm 0.00 in0.0 mm 0.00 in0.0 mm
06:30 AM 20.1°F-6.6°C 10.9°F-11.7°C 67% 2.7 mph E4.3 kmh E 4.0 mph6.4 kmh 30.01 in1016.3 mb 0.00 in0.0 mm 0.00 in0.0 mm 0.00 in0.0 mm
06:45 AM 20.5°F-6.4°C 11.6°F-11.3°C 68% 3.0 mph ENE4.8 kmh ENE 4.9 mph7.9 kmh 30.01 in1016.3 mb 0.00 in0.0 mm 0.00 in0.0 mm 0.00 in0.0 mm
07:00 AM 20.3°F-6.5°C 11.4°F-11.4°C 68% 2.4 mph E3.9 kmh E 3.6 mph5.8 kmh 30.01 in1016.3 mb 0.00 in0.0 mm 0.00 in0.0 mm 0.00 in0.0 mm
07:15 AM 20.3°F-6.5°C 11.4°F-11.4°C 68% 2.3 mph ESE3.7 kmh ESE 3.4 mph5.5 kmh 30.01 in1016.3 mb 0.00 in0.0 mm 0.00 in0.0 mm 0.00 in0.0 mm
07:30 AM 19.9°F-6.7°C 11.1°F-11.6°C 68% 2.7 mph E4.3 kmh E 3.8 mph6.1 kmh 30.01 in1016.3 mb 0.00 in0.0 mm 0.00 in0.0 mm 0.00 in0.0 mm
07:45 AM 19.9°F-6.7°C 11.4°F-11.4°C 69% 1.5 mph E2.4 kmh E 3.6 mph5.8 kmh 29.98 in1015.2 mb 0.00 in0.0 mm 0.00 in0.0 mm 0.00 in0.0 mm
08:00 AM 19.9°F-6.7°C 11.4°F-11.4°C 69% 2.7 mph E4.3 kmh E 4.0 mph6.4 kmh 30.01 in1016.3 mb 0.00 in0.0 mm 0.00 in0.0 mm 0.00 in0.0 mm
08:15 AM 19.9°F-6.7°C 11.4°F-11.4°C 69% 2.8 mph E4.5 kmh E 4.0 mph6.4 kmh 29.98 in1015.2 mb 0.00 in0.0 mm 0.00 in0.0 mm 0.00 in0.0 mm
08:30 AM 19.8°F-6.8°C 11.2°F-11.6°C 69% 2.1 mph E3.4 kmh E 3.4 mph5.5 kmh 30.01 in1016.3 mb 0.00 in0.0 mm 0.00 in0.0 mm 0.00 in0.0 mm
08:45 AM 19.8°F-6.8°C 11.6°F-11.3°C 70% 2.5 mph E4.0 kmh E 3.6 mph5.8 kmh 30.01 in1016.3 mb 0.00 in0.0 mm 0.00 in0.0 mm 0.00 in0.0 mm
09:00 AM 19.9°F-6.7°C 11.7°F-11.3°C 70% 2.5 mph E4.0 kmh E 4.0 mph6.4 kmh 30.04 in1017.3 mb 0.00 in0.0 mm 0.00 in0.0 mm 0.00 in0.0 mm
09:15 AM 20.3°F-6.5°C 12.1°F-11.1°C 70% 3.0 mph E4.8 kmh E 4.0 mph6.4 kmh 30.04 in1017.3 mb 0.00 in0.0 mm 0.00 in0.0 mm 0.00 in0.0 mm
09:30 AM 20.5°F-6.4°C 12.6°F-10.8°C 71% 2.7 mph E4.3 kmh E 4.3 mph6.9 kmh 30.07 in1018.3 mb 0.00 in0.0 mm 0.00 in0.0 mm 0.00 in0.0 mm
09:45 AM 21.0°F-6.1°C 13.1°F-10.5°C 71% 2.1 mph E3.4 kmh E 3.4 mph5.5 kmh 30.07 in1018.3 mb 0.00 in0.0 mm 0.00 in0.0 mm 0.00 in0.0 mm
10:00 AM 21.6°F-5.8°C 13.9°F-10.1°C 72% 2.1 mph E3.4 kmh E 3.6 mph5.8 kmh 30.07 in1018.3 mb 0.00 in0.0 mm 0.00 in0.0 mm 0.00 in0.0 mm
10:15 AM 22.8°F-5.1°C 15.1°F-9.4°C 72% 2.0 mph E3.2 kmh E 4.0 mph6.4 kmh 30.07 in1018.3 mb 0.00 in0.0 mm 0.00 in0.0 mm 0.00 in0.0 mm
10:30 AM 24.6°F-4.1°C 17.2°F-8.2°C 73% 1.8 mph E2.9 kmh E 3.8 mph6.1 kmh 30.07 in1018.3 mb 0.00 in0.0 mm 0.00 in0.0 mm 0.00 in0.0 mm
10:45 AM 26.6°F-3.0°C 18.5°F-7.5°C 71% 1.5 mph NE2.4 kmh NE 2.5 mph4.0 kmh 30.07 in1018.3 mb 0.00 in0.0 mm 0.00 in0.0 mm 0.00 in0.0 mm
11:00 AM 28.9°F-1.7°C 19.7°F-6.8°C 68% 0.5 mph E0.8 kmh E 1.6 mph2.6 kmh 30.04 in1017.3 mb 0.00 in0.0 mm 0.00 in0.0 mm 0.00 in0.0 mm
11:15 AM 29.5°F-1.4°C 15.3°F-9.3°C 55% 1.9 mph N3.1 kmh N 3.6 mph5.8 kmh 30.04 in1017.3 mb 0.00 in0.0 mm 0.00 in0.0 mm 0.00 in0.0 mm
11:30 AM 29.8°F-1.2°C 14.3°F-9.8°C 52% 2.5 mph N4.0 kmh N 3.6 mph5.8 kmh 30.07 in1018.3 mb 0.00 in0.0 mm 0.00 in0.0 mm 0.00 in0.0 mm
11:45 AM 30.9°F-0.6°C 15.8°F-9.0°C 53% 1.1 mph NE1.8 kmh NE 2.9 mph4.7 kmh 30.07 in1018.3 mb 0.00 in0.0 mm 0.00 in0.0 mm 0.00 in0.0 mm
12:00 PM 33.1°F0.6°C 19.1°F-7.2°C 56% 0.8 mph SE1.3 kmh SE 3.1 mph5.0 kmh 30.07 in1018.3 mb 0.00 in0.0 mm 0.00 in0.0 mm 0.00 in0.0 mm
12:15 PM 34.5°F1.4°C 17.3°F-8.2°C 49% 1.9 mph E3.1 kmh E 4.0 mph6.4 kmh 30.07 in1018.3 mb 0.00 in0.0 mm 0.00 in0.0 mm 0.00 in0.0 mm
12:30 PM 34.5°F1.4°C 15.3°F-9.3°C 45% 2.7 mph E4.3 kmh E 4.0 mph6.4 kmh 30.09 in1019.0 mb 0.00 in0.0 mm 0.00 in0.0 mm 0.00 in0.0 mm
12:45 PM 34.2°F1.2°C 12.3°F-10.9°C 40% 3.2 mph E5.1 kmh E 5.4 mph8.7 kmh 30.07 in1018.3 mb 0.00 in0.0 mm 0.00 in0.0 mm 0.00 in0.0 mm
01:00 PM 33.6°F0.9°C 12.4°F-10.9°C 41% 3.3 mph ENE5.3 kmh ENE 5.4 mph8.7 kmh 30.09 in1019.0 mb 0.00 in0.0 mm 0.00 in0.0 mm 0.00 in0.0 mm
01:15 PM 33.4°F0.8°C 11.7°F-11.3°C 40% 3.5 mph E5.6 kmh E 5.8 mph9.3 kmh 30.07 in1018.3 mb 0.00 in0.0 mm 0.00 in0.0 mm 0.00 in0.0 mm
01:30 PM 33.3°F0.7°C 10.9°F-11.7°C 39% 4.2 mph ENE6.8 kmh ENE 6.5 mph10.5 kmh 30.09 in1019.0 mb 0.00 in0.0 mm 0.00 in0.0 mm 0.00 in0.0 mm
01:45 PM 33.8°F1.0°C 12.0°F-11.1°C 40% 3.1 mph E5.0 kmh E 6.0 mph9.7 kmh 30.09 in1019.0 mb 0.00 in0.0 mm 0.00 in0.0 mm 0.00 in0.0 mm
02:00 PM 34.2°F1.2°C 10.6°F-11.9°C 37% 2.3 mph ESE3.7 kmh ESE 5.8 mph9.3 kmh 30.09 in1019.0 mb 0.00 in0.0 mm 0.00 in0.0 mm 0.00 in0.0 mm
02:15 PM 34.3°F1.3°C 10.7°F-11.8°C 37% 2.2 mph ENE3.5 kmh ENE 3.8 mph6.1 kmh 30.07 in1018.3 mb 0.00 in0.0 mm 0.00 in0.0 mm 0.00 in0.0 mm
02:30 PM 34.7°F1.5°C 10.4°F-12.0°C 36% 3.7 mph NE6.0 kmh NE 6.7 mph10.8 kmh 30.09 in1019.0 mb 0.00 in0.0 mm 0.00 in0.0 mm 0.00 in0.0 mm
02:45 PM 34.9°F1.6°C 10.0°F-12.2°C 35% 3.2 mph NE5.1 kmh NE 5.8 mph9.3 kmh 30.07 in1018.3 mb 0.00 in0.0 mm 0.00 in0.0 mm 0.00 in0.0 mm
03:00 PM 35.1°F1.7°C 12.0°F-11.1°C 38% 3.2 mph NNE5.1 kmh NNE 5.8 mph9.3 kmh 30.07 in1018.3 mb 0.00 in0.0 mm 0.00 in0.0 mm 0.00 in0.0 mm
03:15 PM 35.2°F1.8°C 12.7°F-10.7°C 39% 2.7 mph NE4.3 kmh NE 4.0 mph6.4 kmh 30.09 in1019.0 mb 0.00 in0.0 mm 0.00 in0.0 mm 0.00 in0.0 mm
03:30 PM 35.4°F1.9°C 11.1°F-11.6°C 36% 2.4 mph E3.9 kmh E 5.4 mph8.7 kmh 30.09 in1019.0 mb 0.00 in0.0 mm 0.00 in0.0 mm 0.00 in0.0 mm
03:45 PM 35.6°F2.0°C 9.3°F-12.6°C 33% 3.1 mph E5.0 kmh E 5.4 mph8.7 kmh 30.09 in1019.0 mb 0.00 in0.0 mm 0.00 in0.0 mm 0.00 in0.0 mm
04:00 PM 35.2°F1.8°C 8.3°F-13.2°C 32% 2.5 mph E4.0 kmh E 4.9 mph7.9 kmh 30.09 in1019.0 mb 0.00 in0.0 mm 0.00 in0.0 mm 0.00 in0.0 mm
04:15 PM 35.4°F1.9°C 8.4°F-13.1°C 32% 3.5 mph E5.6 kmh E 6.5 mph10.5 kmh 30.09 in1019.0 mb 0.00 in0.0 mm 0.00 in0.0 mm 0.00 in0.0 mm
04:30 PM 35.4°F1.9°C 8.4°F-13.1°C 32% 2.9 mph SE4.7 kmh SE 4.3 mph6.9 kmh 30.09 in1019.0 mb 0.00 in0.0 mm 0.00 in0.0 mm 0.00 in0.0 mm
04:45 PM 34.7°F1.5°C 8.5°F-13.1°C 33% 2.2 mph E3.5 kmh E 4.0 mph6.4 kmh 30.09 in1019.0 mb 0.00 in0.0 mm 0.00 in0.0 mm 0.00 in0.0 mm
05:00 PM 34.0°F1.1°C 7.8°F-13.4°C 33% 1.6 mph ENE2.6 kmh ENE 2.7 mph4.3 kmh 30.09 in1019.0 mb 0.00 in0.0 mm 0.00 in0.0 mm 0.00 in0.0 mm
05:15 PM 33.3°F0.7°C 7.2°F-13.8°C 33% 0.9 mph E1.4 kmh E 2.5 mph4.0 kmh 30.09 in1019.0 mb 0.00 in0.0 mm 0.00 in0.0 mm 0.00 in0.0 mm
05:30 PM 33.1°F0.6°C 7.7°F-13.5°C 34% 1.8 mph NNE2.9 kmh NNE 3.1 mph5.0 kmh 30.09 in1019.0 mb 0.00 in0.0 mm 0.00 in0.0 mm 0.00 in0.0 mm
05:45 PM 32.5°F0.3°C 7.9°F-13.4°C 35% 1.1 mph NE1.8 kmh NE 2.7 mph4.3 kmh 30.12 in1020.0 mb 0.00 in0.0 mm 0.00 in0.0 mm 0.00 in0.0 mm
06:00 PM 31.8°F-0.1°C 8.5°F-13.1°C 37% Calm Calm -- 30.12 in1020.0 mb 0.00 in0.0 mm 0.00 in0.0 mm 0.00 in0.0 mm
06:15 PM 31.3°F-0.4°C 9.7°F-12.4°C 40% Calm Calm -- 30.12 in1020.0 mb 0.00 in0.0 mm 0.00 in0.0 mm 0.00 in0.0 mm
06:30 PM 30.7°F-0.7°C 9.8°F-12.3°C 41% 0.1 mph NE0.2 kmh NE 1.6 mph2.6 kmh 30.12 in1020.0 mb 0.00 in0.0 mm 0.00 in0.0 mm 0.00 in0.0 mm
06:45 PM 30.0°F-1.1°C 9.1°F-12.7°C 41% 1.2 mph NE1.9 kmh NE 2.2 mph3.5 kmh 30.12 in1020.0 mb 0.00 in0.0 mm 0.00 in0.0 mm 0.00 in0.0 mm
07:00 PM 29.8°F-1.2°C 9.5°F-12.5°C 42% 2.6 mph NNE4.2 kmh NNE 3.8 mph6.1 kmh 30.12 in1020.0 mb 0.00 in0.0 mm 0.00 in0.0 mm 0.00 in0.0 mm
07:15 PM 30.0°F-1.1°C 10.2°F-12.1°C 43% 2.9 mph NE4.7 kmh NE 4.3 mph6.9 kmh 30.09 in1019.0 mb 0.00 in0.0 mm 0.00 in0.0 mm 0.00 in0.0 mm
07:30 PM 29.8°F-1.2°C 10.5°F-11.9°C 44% 2.3 mph NE3.7 kmh NE 3.8 mph6.1 kmh 30.12 in1020.0 mb 0.00 in0.0 mm 0.00 in0.0 mm 0.00 in0.0 mm
07:45 PM 28.9°F-1.7°C 10.2°F-12.1°C 45% 1.9 mph NE3.1 kmh NE 3.1 mph5.0 kmh 30.12 in1020.0 mb 0.00 in0.0 mm 0.00 in0.0 mm 0.00 in0.0 mm
08:00 PM 28.4°F-2.0°C 10.7°F-11.8°C 47% 1.8 mph ENE2.9 kmh ENE 2.7 mph4.3 kmh 30.15 in1021.0 mb 0.00 in0.0 mm 0.00 in0.0 mm 0.00 in0.0 mm
08:15 PM 27.9°F-2.3°C 11.6°F-11.3°C 50% 1.7 mph NE2.7 kmh NE 2.5 mph4.0 kmh 30.15 in1021.0 mb 0.00 in0.0 mm 0.00 in0.0 mm 0.00 in0.0 mm
08:30 PM 27.5°F-2.5°C 12.2°F-11.0°C 52% 1.6 mph NE2.6 kmh NE 2.9 mph4.7 kmh 30.15 in1021.0 mb 0.00 in0.0 mm 0.00 in0.0 mm 0.00 in0.0 mm
08:45 PM 27.3°F-2.6°C 12.8°F-10.7°C 54% 1.5 mph ENE2.4 kmh ENE 2.9 mph4.7 kmh 30.18 in1022.0 mb 0.00 in0.0 mm 0.00 in0.0 mm 0.00 in0.0 mm
09:00 PM 27.1°F-2.7°C 13.9°F-10.1°C 57% Calm Calm -- 30.18 in1022.0 mb 0.00 in0.0 mm 0.00 in0.0 mm 0.00 in0.0 mm
09:15 PM 26.2°F-3.2°C 11.8°F-11.2°C 54% Calm Calm -- 30.18 in1022.0 mb 0.00 in0.0 mm 0.00 in0.0 mm 0.00 in0.0 mm
09:30 PM 25.9°F-3.4°C 12.3°F-10.9°C 56% Calm Calm -- 30.18 in1022.0 mb 0.00 in0.0 mm 0.00 in0.0 mm 0.00 in0.0 mm
09:45 PM 26.2°F-3.2°C 13.1°F-10.5°C 57% Calm Calm -- 30.18 in1022.0 mb 0.00 in0.0 mm 0.00 in0.0 mm 0.00 in0.0 mm
10:00 PM 25.5°F-3.6°C 12.0°F-11.1°C 56% Calm Calm -- 30.18 in1022.0 mb 0.00 in0.0 mm 0.00 in0.0 mm 0.00 in0.0 mm
10:15 PM 25.0°F-3.9°C 11.9°F-11.2°C 57% Calm Calm -- 30.18 in1022.0 mb 0.00 in0.0 mm 0.00 in0.0 mm 0.00 in0.0 mm
10:30 PM 24.6°F-4.1°C 11.5°F-11.4°C 57% Calm Calm -- 30.15 in1021.0 mb 0.00 in0.0 mm 0.00 in0.0 mm 0.00 in0.0 mm
10:45 PM 24.1°F-4.4°C 11.8°F-11.2°C 59% Calm Calm -- 30.18 in1022.0 mb 0.00 in0.0 mm 0.00 in0.0 mm 0.00 in0.0 mm
11:00 PM 24.4°F-4.2°C 13.3°F-10.4°C 62% Calm Calm -- 30.18 in1022.0 mb 0.00 in0.0 mm 0.00 in0.0 mm 0.00 in0.0 mm
11:15 PM 24.4°F-4.2°C 14.0°F-10.0°C 64% 1.4 mph E2.3 kmh E 2.5 mph4.0 kmh 30.18 in1022.0 mb 0.00 in0.0 mm 0.00 in0.0 mm 0.00 in0.0 mm
11:30 PM 23.9°F-4.5°C 13.5°F-10.3°C 64% 0.5 mph SE0.8 kmh SE 2.0 mph3.2 kmh 30.18 in1022.0 mb 0.00 in0.0 mm 0.00 in0.0 mm 0.00 in0.0 mm
11:45 PM 23.2°F-4.9°C 12.4°F-10.9°C 63% 0.6 mph SE1.0 kmh SE 2.2 mph3.5 kmh 30.21 in1023.0 mb 0.00 in0.0 mm 0.00 in0.0 mm 0.00 in0.0 mm